Time;durP1;ratioP1;P1;durP2;ratioP2;P2;SDS_P1;SDS_P2;PMS_P1;PMS_P2;Temp;Humidity;BMP_temperature;BMP_pressure;BME280_temperature;BME280_humidity;BME280_pressure;Samples;Min_cycle;Max_cycle;Signal;HPM_P1;HPM_P2
2023/03/20 00:01:30;;;;;;;18.88;12.43;;;;;;;;;;5022025;28;20422;-58
2023/03/20 00:03:56;;;;;;;16.13;12.40;;;;;;;;;;5023550;28;20045;-56
2023/03/20 00:06:22;;;;;;;18.70;13.80;;;;;;;;;;5023232;28;20078;-59
2023/03/20 00:08:49;;;;;;;17.75;12.98;;;;;;;;;;5023608;28;20466;-58
2023/03/20 00:11:29;;;;;;;16.73;10.95;;;;;;;;;;5022177;28;20055;-54
2023/03/20 00:13:56;;;;;;;14.95;10.77;;;;;;;;;;5024449;28;20042;-57
2023/03/20 00:16:23;;;;;;;12.52;9.02;;;;;;;;;;5026236;28;20029;-59
2023/03/20 00:18:49;;;;;;;13.20;9.30;;;;;;;;;;5023555;28;20055;-57
2023/03/20 00:21:18;;;;;;;12.98;9.02;;;;;;;;;;5040398;28;20409;-59
2023/03/20 00:23:43;;;;;;;10.55;7.88;;;;;;;;;;5022543;28;20025;-60
2023/03/20 00:26:14;;;;;;;11.98;7.03;;;;;;;;;;5022981;28;20025;-58
2023/03/20 00:28:43;;;;;;;10.63;7.35;;;;;;;;;;5023470;28;20032;-56
2023/03/20 00:31:21;;;;;;;11.43;7.35;;;;;;;;;;5028608;28;20029;-61
2023/03/20 00:33:46;;;;;;;11.73;7.40;;;;;;;;;;5036846;28;20061;-55
2023/03/20 00:36:12;;;;;;;11.25;8.07;;;;;;;;;;5022836;28;20068;-60
2023/03/20 00:38:38;;;;;;;9.00;7.20;;;;;;;;;;5021572;28;20036;-58
2023/03/20 00:41:14;;;;;;;10.00;7.53;;;;;;;;;;5021165;28;20033;-61
2023/03/20 00:43:40;;;;;;;10.77;7.43;;;;;;;;;;5002391;28;20038;-58
2023/03/20 00:46:10;;;;;;;10.85;8.60;;;;;;;;;;5021300;28;20115;-57
2023/03/20 00:48:36;;;;;;;11.75;8.82;;;;;;;;;;5021951;28;20417;-58
2023/03/20 00:51:01;;;;;;;11.57;8.38;;;;;;;;;;5022888;28;20478;-58
2023/03/20 00:53:26;;;;;;;11.50;8.23;;;;;;;;;;5021796;28;20033;-56
2023/03/20 00:55:53;;;;;;;11.17;8.27;;;;;;;;;;5021374;28;20037;-58
2023/03/20 00:58:18;;;;;;;9.07;7.30;;;;;;;;;;5021296;28;20580;-59
2023/03/20 01:00:45;;;;;;;11.00;7.30;;;;;;;;;;5020846;28;20025;-59
2023/03/20 01:03:12;;;;;;;;;;;;;;;;;;5020981;28;20494;-58
2023/03/20 01:05:37;;;;;;;13.27;7.75;;;;;;;;;;5023576;28;19964;-59
2023/03/20 01:08:05;;;;;;;10.18;7.80;;;;;;;;;;5006204;28;20152;-60
2023/03/20 01:10:30;;;;;;;;;;;;;;;;;;5029612;28;20041;-57
2023/03/20 01:12:57;;;;;;;8.82;7.03;;;;;;;;;;5025301;28;19921;-58
2023/03/20 01:15:24;;;;;;;8.70;6.93;;;;;;;;;;5020685;28;20030;-58
2023/03/20 01:17:50;;;;;;;9.60;7.30;;;;;;;;;;5024442;28;20146;-59
2023/03/20 01:20:17;;;;;;;9.88;7.68;;;;;;;;;;5020332;28;20136;-56
2023/03/20 01:22:42;;;;;;;10.57;8.35;;;;;;;;;;5020286;28;20029;-57
2023/03/20 01:25:08;;;;;;;10.65;7.65;;;;;;;;;;5020852;28;20041;-59
2023/03/20 01:27:33;;;;;;;11.35;7.85;;;;;;;;;;5020400;28;20086;-58
2023/03/20 01:29:58;;;;;;;10.48;7.65;;;;;;;;;;5019132;28;20036;-58
2023/03/20 01:32:23;;;;;;;9.82;7.88;;;;;;;;;;5022364;28;20061;-59
2023/03/20 01:34:51;;;;;;;10.23;8.48;;;;;;;;;;5018596;28;20482;-56
2023/03/20 01:37:25;;;;;;;12.73;9.70;;;;;;;;;;5036391;28;20033;-59
2023/03/20 01:39:51;;;;;;;11.98;9.25;;;;;;;;;;5013177;28;20478;-58
2023/03/20 01:42:17;;;;;;;12.07;9.18;;;;;;;;;;5023810;28;20044;-58
2023/03/20 01:44:42;;;;;;;15.65;11.02;;;;;;;;;;5036250;28;20574;-56
2023/03/20 01:47:16;;;;;;;15.07;10.32;;;;;;;;;;5017631;28;20473;-58
2023/03/20 01:50:00;;;;;;;12.93;9.23;;;;;;;;;;5017338;28;20029;-58
2023/03/20 01:52:25;;;;;;;12.68;9.45;;;;;;;;;;5021783;28;20267;-58
2023/03/20 01:54:50;;;;;;;12.27;9.05;;;;;;;;;;5024404;28;20493;-59
2023/03/20 01:57:21;;;;;;;11.93;8.60;;;;;;;;;;5024270;28;20056;-57
2023/03/20 01:59:50;;;;;;;11.88;8.80;;;;;;;;;;5025545;28;20033;-58
2023/03/20 02:02:17;;;;;;;11.75;9.00;;;;;;;;;;5023972;28;20034;-57
2023/03/20 02:04:42;;;;;;;;;;;;;;;;;;5023123;28;20037;-55
2023/03/20 02:07:12;;;;;;;12.40;7.90;;;;;;;;;;5024194;28;19913;-58
2023/03/20 02:09:41;;;;;;;11.32;8.32;;;;;;;;;;5023063;28;20043;-58
2023/03/20 02:12:11;;;;;;;12.88;8.68;;;;;;;;;;5024629;28;20484;-59
2023/03/20 02:14:38;;;;;;;12.37;9.07;;;;;;;;;;5028992;28;20041;-56
2023/03/20 02:17:29;;;;;;;12.35;9.18;;;;;;;;;;5012590;28;20742;-58
2023/03/20 02:20:05;;;;;;;12.73;8.73;;;;;;;;;;5040135;28;20064;-60
2023/03/20 02:22:30;;;;;;;11.25;8.57;;;;;;;;;;5016296;28;20025;-58
2023/03/20 02:25:14;;;;;;;13.57;9.68;;;;;;;;;;5033694;28;20044;-59
2023/03/20 02:28:06;;;;;;;12.40;9.52;;;;;;;;;;5025997;28;20049;-59
2023/03/20 02:30:41;;;;;;;14.52;10.38;;;;;;;;;;5027408;28;20869;-56
2023/03/20 02:33:10;;;;;;;13.55;9.93;;;;;;;;;;4998389;28;20056;-58
2023/03/20 02:36:05;;;;;;;11.65;9.15;;;;;;;;;;5032560;28;20145;-58
2023/03/20 02:38:31;;;;;;;11.55;8.73;;;;;;;;;;4988756;28;20056;-60
2023/03/20 02:40:56;;;;;;;10.57;8.05;;;;;;;;;;5024504;28;20616;-62
2023/03/20 02:43:38;;;;;;;12.23;7.95;;;;;;;;;;5020340;28;20272;-59
2023/03/20 02:46:10;;;;;;;12.35;9.38;;;;;;;;;;5016361;28;20043;-56
2023/03/20 02:48:45;;;;;;;14.27;8.93;;;;;;;;;;5022979;28;20040;-58
2023/03/20 02:51:14;;;;;;;15.57;9.45;;;;;;;;;;4997129;28;21915;-59
2023/03/20 02:53:39;;;;;;;11.85;9.45;;;;;;;;;;5015794;28;20156;-58
2023/03/20 02:56:17;;;;;;;10.68;8.27;;;;;;;;;;5021988;28;20128;-57
2023/03/20 02:58:49;;;;;;;11.32;8.18;;;;;;;;;;5030720;28;20433;-58
2023/03/20 03:01:19;;;;;;;11.20;8.02;;;;;;;;;;5022549;28;20091;-60
2023/03/20 03:03:56;;;;;;;12.05;7.90;;;;;;;;;;5023211;28;20033;-57
2023/03/20 03:06:31;;;;;;;10.10;7.55;;;;;;;;;;5023258;28;20033;-59
2023/03/20 03:09:02;;;;;;;10.48;7.82;;;;;;;;;;5025492;28;20033;-55
2023/03/20 03:11:29;;;;;;;11.10;7.53;;;;;;;;;;5027335;28;20057;-55
2023/03/20 03:13:56;;;;;;;11.15;8.13;;;;;;;;;;5037253;28;20135;-58
2023/03/20 03:16:25;;;;;;;13.00;8.00;;;;;;;;;;5024467;28;20393;-57
2023/03/20 03:18:54;;;;;;;13.68;8.98;;;;;;;;;;5023570;28;20025;-56
2023/03/20 03:21:21;;;;;;;12.30;8.98;;;;;;;;;;5017267;28;20040;-56
2023/03/20 03:23:47;;;;;;;11.80;8.82;;;;;;;;;;5021653;28;20067;-57
2023/03/20 03:26:33;;;;;;;15.23;9.27;;;;;;;;;;5023483;28;20191;-55
2023/03/20 03:29:14;;;;;;;11.45;8.32;;;;;;;;;;5023980;28;20116;-60
2023/03/20 03:31:41;;;;;;;11.23;7.55;;;;;;;;;;5028454;28;20459;-59
2023/03/20 03:34:08;;;;;;;13.50;8.18;;;;;;;;;;5023973;28;20037;-58
2023/03/20 03:36:33;;;;;;;11.82;7.38;;;;;;;;;;5024516;28;20037;-56
2023/03/20 03:39:21;;;;;;;10.20;7.40;;;;;;;;;;5023938;28;20440;-61
2023/03/20 03:41:49;;;;;;;8.45;6.57;;;;;;;;;;5024196;28;20664;-57
2023/03/20 03:44:19;;;;;;;10.55;7.88;;;;;;;;;;5022245;28;20462;-57
2023/03/20 03:46:53;;;;;;;10.35;7.55;;;;;;;;;;5016096;28;20040;-58
2023/03/20 03:49:21;;;;;;;10.52;7.15;;;;;;;;;;5036804;28;20038;-61
2023/03/20 03:51:50;;;;;;;13.15;6.57;;;;;;;;;;5031034;28;20057;-56
2023/03/20 03:54:25;;;;;;;9.57;6.60;;;;;;;;;;5023119;28;20650;-59
2023/03/20 03:57:12;;;;;;;8.48;6.55;;;;;;;;;;5023469;28;20049;-59
2023/03/20 03:59:40;;;;;;;9.63;6.80;;;;;;;;;;5023900;28;20033;-56
2023/03/20 04:02:07;;;;;;;9.95;7.20;;;;;;;;;;5006518;28;20394;-54
2023/03/20 04:04:34;;;;;;;9.52;7.43;;;;;;;;;;5025912;28;20045;-60
2023/03/20 04:07:00;;;;;;;12.40;8.07;;;;;;;;;;5021707;28;20029;-56
2023/03/20 04:09:26;;;;;;;10.82;7.13;;;;;;;;;;5028925;28;20126;-59
2023/03/20 04:11:52;;;;;;;9.38;7.28;;;;;;;;;;5020162;28;20168;-58
2023/03/20 04:14:18;;;;;;;9.82;7.13;;;;;;;;;;5021609;28;20033;-59
2023/03/20 04:16:43;;;;;;;9.35;7.03;;;;;;;;;;5022083;28;20163;-53
2023/03/20 04:19:09;;;;;;;9.32;6.43;;;;;;;;;;5025642;28;20060;-56
2023/03/20 04:21:34;;;;;;;9.60;6.78;;;;;;;;;;5021615;28;20620;-54
2023/03/20 04:24:00;;;;;;;9.00;6.70;;;;;;;;;;5023373;28;20254;-60
2023/03/20 04:26:26;;;;;;;8.43;6.32;;;;;;;;;;5036741;28;20037;-58
2023/03/20 04:28:51;;;;;;;10.70;7.18;;;;;;;;;;5023094;28;20033;-58
2023/03/20 04:31:55;;;;;;;9.35;6.35;;;;;;;;;;5006919;28;20120;-59
2023/03/20 04:34:41;;;;;;;9.52;6.72;;;;;;;;;;5023435;28;20048;-58
2023/03/20 04:37:24;;;;;;;11.20;7.63;;;;;;;;;;5036329;28;20528;-58
2023/03/20 04:39:59;;;;;;;11.57;7.97;;;;;;;;;;5020964;28;20923;-59
2023/03/20 04:42:24;;;;;;;12.20;8.52;;;;;;;;;;5003806;28;20032;-56
2023/03/20 04:44:55;;;;;;;10.32;7.85;;;;;;;;;;5021893;28;20037;-57
2023/03/20 04:47:22;;;;;;;10.30;7.45;;;;;;;;;;5021100;28;20156;-58
2023/03/20 04:49:47;;;;;;;10.40;7.30;;;;;;;;;;5021700;28;20069;-56
2023/03/20 04:52:13;;;;;;;10.65;7.45;;;;;;;;;;5021409;28;20398;-58
2023/03/20 04:54:41;;;;;;;8.35;6.20;;;;;;;;;;5020806;28;20053;-57
2023/03/20 04:57:06;;;;;;;9.25;6.85;;;;;;;;;;5022383;28;20033;-58
2023/03/20 04:59:32;;;;;;;8.40;6.03;;;;;;;;;;5022419;28;20028;-60
2023/03/20 05:01:57;;;;;;;11.38;7.03;;;;;;;;;;5021325;28;20029;-58
2023/03/20 05:04:23;;;;;;;11.82;7.22;;;;;;;;;;5019752;28;20044;-56
2023/03/20 05:06:48;;;;;;;12.73;7.00;;;;;;;;;;5013790;28;20673;-57
2023/03/20 05:09:15;;;;;;;;;;;;;;;;;;5019619;28;20079;-58
2023/03/20 05:11:41;;;;;;;12.95;7.80;;;;;;;;;;5019920;28;20453;-57
2023/03/20 05:14:13;;;;;;;11.40;7.60;;;;;;;;;;5021325;28;20081;-60
2023/03/20 05:17:01;;;;;;;8.50;6.57;;;;;;;;;;4993823;28;20044;-60
2023/03/20 05:19:56;;;;;;;9.73;6.80;;;;;;;;;;5000007;28;20045;-58
2023/03/20 05:22:41;;;;;;;11.18;7.35;;;;;;;;;;5018947;28;20495;-57
2023/03/20 05:25:16;;;;;;;10.23;7.28;;;;;;;;;;5021670;28;20195;-56
2023/03/20 05:28:02;;;;;;;9.35;6.97;;;;;;;;;;5023460;28;20038;-58
2023/03/20 05:30:34;;;;;;;10.55;6.57;;;;;;;;;;5025353;28;20062;-57
2023/03/20 05:33:18;;;;;;;10.18;6.65;;;;;;;;;;5024389;28;20139;-61
2023/03/20 05:36:04;;;;;;;9.45;6.75;;;;;;;;;;5027403;28;20045;-59
2023/03/20 05:38:47;;;;;;;9.40;6.00;;;;;;;;;;5032671;28;20044;-59
2023/03/20 05:41:39;;;;;;;9.63;6.65;;;;;;;;;;5024572;28;20045;-59
2023/03/20 05:44:34;;;;;;;8.10;6.35;;;;;;;;;;5019389;28;20049;-59
2023/03/20 05:47:22;;;;;;;10.45;6.30;;;;;;;;;;5024436;28;20048;-57
2023/03/20 05:49:56;;;;;;;8.93;6.07;;;;;;;;;;5019285;28;20030;-55
2023/03/20 05:52:48;;;;;;;8.52;6.07;;;;;;;;;;5020862;28;20050;-58
2023/03/20 05:55:22;;;;;;;8.98;5.68;;;;;;;;;;5022524;28;20505;-58
2023/03/20 05:58:00;;;;;;;7.18;5.40;;;;;;;;;;5023022;28;20494;-56
2023/03/20 06:00:38;;;;;;;11.38;6.00;;;;;;;;;;5020854;28;20033;-58
2023/03/20 06:03:23;;;;;;;7.40;5.47;;;;;;;;;;5014903;28;20048;-58
2023/03/20 06:06:00;;;;;;;8.60;5.35;;;;;;;;;;5020349;28;20056;-57
2023/03/20 06:08:26;;;;;;;6.28;4.90;;;;;;;;;;5022781;28;20044;-58
2023/03/20 06:10:52;;;;;;;7.32;4.97;;;;;;;;;;5021787;28;20071;-60
2023/03/20 06:13:18;;;;;;;6.28;4.50;;;;;;;;;;4998896;28;20385;-59
2023/03/20 06:15:44;;;;;;;7.18;4.88;;;;;;;;;;5017966;28;20041;-58
2023/03/20 06:18:14;;;;;;;8.00;4.60;;;;;;;;;;5023867;28;20044;-58
2023/03/20 06:20:40;;;;;;;6.60;4.97;;;;;;;;;;5028984;28;20034;-58
2023/03/20 06:23:05;;;;;;;7.95;5.00;;;;;;;;;;5022829;28;20043;-58
2023/03/20 06:25:30;;;;;;;7.97;4.75;;;;;;;;;;5024097;28;20026;-58
2023/03/20 06:27:56;;;;;;;6.68;4.55;;;;;;;;;;5020466;28;20029;-58
2023/03/20 06:30:22;;;;;;;7.18;4.85;;;;;;;;;;5020292;28;20029;-60
2023/03/20 06:32:48;;;;;;;6.50;4.70;;;;;;;;;;5018538;28;20291;-56
2023/03/20 06:35:16;;;;;;;7.72;5.20;;;;;;;;;;5004411;28;20635;-60
2023/03/20 06:37:44;;;;;;;7.53;5.00;;;;;;;;;;5018966;28;20029;-58
2023/03/20 06:40:14;;;;;;;6.43;4.55;;;;;;;;;;5021135;28;20033;-59
2023/03/20 06:42:40;;;;;;;8.10;5.35;;;;;;;;;;5022683;28;20033;-59
2023/03/20 06:45:07;;;;;;;8.00;5.53;;;;;;;;;;5038246;28;20037;-60
2023/03/20 06:47:53;;;;;;;7.80;5.27;;;;;;;;;;5020857;28;20037;-62
2023/03/20 06:50:18;;;;;;;6.75;4.90;;;;;;;;;;5005997;28;20282;-59
2023/03/20 06:52:44;;;;;;;7.63;5.00;;;;;;;;;;5024095;28;20029;-57
2023/03/20 06:55:39;;;;;;;6.15;4.03;;;;;;;;;;5024229;28;20049;-57
2023/03/20 06:58:06;;;;;;;6.00;3.95;;;;;;;;;;5027318;28;20152;-59
2023/03/20 07:00:33;;;;;;;5.95;4.10;;;;;;;;;;5020040;28;20044;-58
2023/03/20 07:03:02;;;;;;;13.13;4.05;;;;;;;;;;5022608;28;20030;-58
2023/03/20 07:05:28;;;;;;;9.10;4.15;;;;;;;;;;5038370;28;20033;-60
2023/03/20 07:07:54;;;;;;;7.30;3.70;;;;;;;;;;5005503;28;20049;-58
2023/03/20 07:10:19;;;;;;;5.00;3.65;;;;;;;;;;5025266;28;20282;-58
2023/03/20 07:12:49;;;;;;;6.13;3.47;;;;;;;;;;5024574;28;20033;-59
2023/03/20 07:15:15;;;;;;;5.13;3.35;;;;;;;;;;5025176;28;20187;-58
2023/03/20 07:17:42;;;;;;;5.07;3.47;;;;;;;;;;5026683;28;20041;-58
2023/03/20 07:20:08;;;;;;;4.38;2.80;;;;;;;;;;5023666;28;20032;-58
2023/03/20 07:22:34;;;;;;;4.53;3.17;;;;;;;;;;5024909;28;20461;-56
2023/03/20 07:25:21;;;;;;;6.63;3.60;;;;;;;;;;5042050;28;20317;-62
2023/03/20 07:27:49;;;;;;;4.70;3.10;;;;;;;;;;5024175;28;20681;-59
2023/03/20 07:30:15;;;;;;;4.97;3.22;;;;;;;;;;5024018;28;20108;-60
2023/03/20 07:32:41;;;;;;;11.55;6.38;;;;;;;;;;5024327;28;20033;-60
2023/03/20 07:35:08;;;;;;;5.05;3.25;;;;;;;;;;5023272;28;20099;-59
2023/03/20 07:37:33;;;;;;;5.47;3.05;;;;;;;;;;5023960;28;20052;-57
2023/03/20 07:40:01;;;;;;;5.20;2.70;;;;;;;;;;5024202;28;20036;-58
2023/03/20 07:42:31;;;;;;;4.18;2.50;;;;;;;;;;5026487;28;20142;-58
2023/03/20 07:45:01;;;;;;;3.55;2.40;;;;;;;;;;5023300;28;20037;-59
2023/03/20 07:47:29;;;;;;;5.22;2.38;;;;;;;;;;5041186;28;20041;-59
2023/03/20 07:49:54;;;;;;;6.22;2.40;;;;;;;;;;5022694;28;20025;-57
2023/03/20 07:52:20;;;;;;;2.97;2.17;;;;;;;;;;5024302;28;20801;-59
2023/03/20 07:54:46;;;;;;;3.17;2.03;;;;;;;;;;5024121;28;20171;-57
2023/03/20 07:57:12;;;;;;;6.00;2.58;;;;;;;;;;5029835;28;20806;-58
2023/03/20 07:59:38;;;;;;;2.85;1.88;;;;;;;;;;5024152;28;20470;-59
2023/03/20 08:02:03;;;;;;;3.65;2.28;;;;;;;;;;5026388;28;20071;-58
2023/03/20 08:04:28;;;;;;;2.90;2.05;;;;;;;;;;5025986;28;20040;-58
2023/03/20 08:06:54;;;;;;;3.63;2.15;;;;;;;;;;5025017;28;20026;-60
2023/03/20 08:09:19;;;;;;;3.50;2.10;;;;;;;;;;5024197;28;20371;-59
2023/03/20 08:11:45;;;;;;;2.85;2.08;;;;;;;;;;5024742;28;20033;-58
2023/03/20 08:14:10;;;;;;;5.55;2.80;;;;;;;;;;5026814;28;20382;-59
2023/03/20 08:16:35;;;;;;;4.18;2.03;;;;;;;;;;5027764;28;20025;-58
2023/03/20 08:19:02;;;;;;;2.80;1.85;;;;;;;;;;5008875;28;20475;-58
2023/03/20 08:21:27;;;;;;;5.90;2.10;;;;;;;;;;5022930;28;20502;-57
2023/03/20 08:23:53;;;;;;;3.45;1.80;;;;;;;;;;5025919;28;20034;-58
2023/03/20 08:26:19;;;;;;;2.28;1.77;;;;;;;;;;5025658;28;20129;-59
2023/03/20 08:28:44;;;;;;;4.18;2.10;;;;;;;;;;5025421;28;20033;-58
2023/03/20 08:31:10;;;;;;;3.90;2.10;;;;;;;;;;5025984;28;20655;-55
2023/03/20 08:33:35;;;;;;;6.20;1.95;;;;;;;;;;5022756;28;20398;-58
2023/03/20 08:36:01;;;;;;;3.20;1.80;;;;;;;;;;5024610;28;20037;-59
2023/03/20 08:38:26;;;;;;;2.65;1.70;;;;;;;;;;5024649;28;20036;-59
2023/03/20 08:40:53;;;;;;;4.72;2.10;;;;;;;;;;5021262;28;20116;-60
2023/03/20 08:43:19;;;;;;;3.22;1.90;;;;;;;;;;5021259;28;20034;-58
2023/03/20 08:45:44;;;;;;;3.72;2.10;;;;;;;;;;5024287;28;20025;-58
2023/03/20 08:48:10;;;;;;;3.33;2.40;;;;;;;;;;5025811;28;20025;-59
2023/03/20 08:50:35;;;;;;;3.80;1.92;;;;;;;;;;5023269;28;20402;-59
2023/03/20 08:53:01;;;;;;;4.00;2.50;;;;;;;;;;5025939;28;20478;-58
2023/03/20 08:55:26;;;;;;;6.72;2.70;;;;;;;;;;5024481;28;20037;-58
2023/03/20 08:57:53;;;;;;;3.95;2.30;;;;;;;;;;5026304;28;20079;-58
2023/03/20 09:00:19;;;;;;;5.68;2.30;;;;;;;;;;5023837;28;20037;-59
2023/03/20 09:02:44;;;;;;;4.95;2.20;;;;;;;;;;5023820;28;20041;-58
2023/03/20 09:05:10;;;;;;;3.72;2.40;;;;;;;;;;5025400;28;20033;-60
2023/03/20 09:07:35;;;;;;;3.65;2.45;;;;;;;;;;5024180;28;20073;-59
2023/03/20 09:10:01;;;;;;;3.55;2.20;;;;;;;;;;5024480;28;20036;-60
2023/03/20 09:12:26;;;;;;;5.22;2.40;;;;;;;;;;5023030;28;20474;-61
2023/03/20 09:14:52;;;;;;;4.78;2.80;;;;;;;;;;5024291;28;20033;-58
2023/03/20 09:17:17;;;;;;;4.30;2.47;;;;;;;;;;5021055;28;20025;-60
2023/03/20 09:19:43;;;;;;;3.13;2.33;;;;;;;;;;5017647;28;20520;-58
2023/03/20 09:22:12;;;;;;;3.53;2.35;;;;;;;;;;5022755;28;20036;-59
2023/03/20 09:24:38;;;;;;;5.55;2.80;;;;;;;;;;5022533;28;20044;-61
2023/03/20 09:27:03;;;;;;;5.32;2.85;;;;;;;;;;5023823;28;20029;-57
2023/03/20 09:29:28;;;;;;;3.92;2.80;;;;;;;;;;5022502;28;20130;-59
2023/03/20 09:31:54;;;;;;;4.28;2.92;;;;;;;;;;5024371;28;20033;-61
2023/03/20 09:34:19;;;;;;;3.72;2.60;;;;;;;;;;5023245;28;20033;-60
2023/03/20 09:36:45;;;;;;;5.30;2.50;;;;;;;;;;5023025;28;20033;-58
2023/03/20 09:39:10;;;;;;;6.80;2.75;;;;;;;;;;5024184;28;20614;-58
2023/03/20 09:41:36;;;;;;;4.95;2.80;;;;;;;;;;5024503;28;20033;-59
2023/03/20 09:44:20;;;;;;;4.57;2.80;;;;;;;;;;5022131;28;20091;-58
2023/03/20 09:47:07;;;;;;;4.55;2.88;;;;;;;;;;5022292;28;20029;-57
2023/03/20 09:49:38;;;;;;;5.57;3.05;;;;;;;;;;5021972;28;20068;-59
2023/03/20 09:52:11;;;;;;;4.03;2.72;;;;;;;;;;5023640;28;20042;-58
2023/03/20 09:54:39;;;;;;;7.85;3.00;;;;;;;;;;5024039;28;20087;-58
2023/03/20 09:57:05;;;;;;;3.75;2.63;;;;;;;;;;5023912;28;20037;-59
2023/03/20 09:59:33;;;;;;;4.15;2.60;;;;;;;;;;5022650;28;20044;-62
2023/03/20 10:02:03;;;;;;;4.35;2.42;;;;;;;;;;5021304;28;20069;-60
2023/03/20 10:04:28;;;;;;;4.00;2.65;;;;;;;;;;5022451;28;20029;-60
2023/03/20 10:06:54;;;;;;;5.40;2.63;;;;;;;;;;5003536;28;20168;-59
2023/03/20 10:09:22;;;;;;;7.80;3.08;;;;;;;;;;5022560;28;20115;-58
2023/03/20 10:12:13;;;;;;;3.85;2.60;;;;;;;;;;5022184;28;20033;-58
2023/03/20 10:14:57;;;;;;;5.35;3.08;;;;;;;;;;5022558;28;20064;-60
2023/03/20 10:17:31;;;;;;;4.85;2.67;;;;;;;;;;5027763;28;20033;-59
2023/03/20 10:19:58;;;;;;;5.35;2.88;;;;;;;;;;5015631;28;20727;-59
2023/03/20 10:22:37;;;;;;;5.75;2.80;;;;;;;;;;5020729;28;20025;-59
2023/03/20 10:25:03;;;;;;;4.57;2.80;;;;;;;;;;5026307;28;20037;-59
2023/03/20 10:27:32;;;;;;;4.82;2.92;;;;;;;;;;5027836;28;20044;-58
2023/03/20 10:30:16;;;;;;;5.25;2.95;;;;;;;;;;5026969;28;20124;-59
2023/03/20 10:32:48;;;;;;;6.18;2.83;;;;;;;;;;4996564;28;20387;-58
2023/03/20 10:35:27;;;;;;;5.47;2.58;;;;;;;;;;5022871;28;20102;-58
2023/03/20 10:38:10;;;;;;;4.07;2.78;;;;;;;;;;5023129;28;20041;-58
2023/03/20 10:40:37;;;;;;;5.72;3.03;;;;;;;;;;5023578;28;20036;-61
2023/03/20 10:43:09;;;;;;;5.35;2.83;;;;;;;;;;5021304;28;20025;-59
2023/03/20 10:45:46;;;;;;;4.95;3.00;;;;;;;;;;5023992;28;20478;-57
2023/03/20 10:48:15;;;;;;;5.60;3.35;;;;;;;;;;5024917;28;20120;-60
2023/03/20 10:50:44;;;;;;;5.93;2.83;;;;;;;;;;5024708;28;20029;-58
2023/03/20 10:53:17;;;;;;;4.68;3.08;;;;;;;;;;5024793;28;20049;-61
2023/03/20 10:55:44;;;;;;;5.50;2.80;;;;;;;;;;5029163;28;20044;-61
2023/03/20 10:58:19;;;;;;;4.22;2.80;;;;;;;;;;5038399;28;20037;-59
2023/03/20 11:00:45;;;;;;;4.18;2.88;;;;;;;;;;5031987;28;20481;-57
2023/03/20 11:03:41;;;;;;;4.80;3.10;;;;;;;;;;5024640;28;20116;-58
2023/03/20 11:06:16;;;;;;;3.90;2.88;;;;;;;;;;5018443;28;20042;-60
2023/03/20 11:08:46;;;;;;;5.22;3.40;;;;;;;;;;5025914;28;20079;-59
2023/03/20 11:11:11;;;;;;;6.25;3.35;;;;;;;;;;5024783;28;20034;-58
2023/03/20 11:13:36;;;;;;;7.03;3.50;;;;;;;;;;5026044;28;20040;-57
2023/03/20 11:16:19;;;;;;;5.38;3.38;;;;;;;;;;5026097;28;20387;-58
2023/03/20 11:18:45;;;;;;;5.72;3.72;;;;;;;;;;5025391;28;20033;-60
2023/03/20 11:21:30;;;;;;;6.47;3.92;;;;;;;;;;5023338;28;20169;-59
2023/03/20 11:23:55;;;;;;;5.50;3.65;;;;;;;;;;5040509;28;20041;-58
2023/03/20 11:26:27;;;;;;;7.03;3.80;;;;;;;;;;5025355;28;20040;-59
2023/03/20 11:28:54;;;;;;;6.18;4.10;;;;;;;;;;5025078;28;20022;-59
2023/03/20 11:31:40;;;;;;;6.82;4.20;;;;;;;;;;5022504;28;20048;-60
2023/03/20 11:34:14;;;;;;;6.45;4.15;;;;;;;;;;5023721;28;20049;-58
2023/03/20 11:36:46;;;;;;;9.55;4.65;;;;;;;;;;5030724;28;20148;-58
2023/03/20 11:39:15;;;;;;;7.22;4.60;;;;;;;;;;5024599;28;20047;-58
2023/03/20 11:41:45;;;;;;;7.95;4.38;;;;;;;;;;5024346;28;20716;-60
2023/03/20 11:44:19;;;;;;;7.13;4.70;;;;;;;;;;5023614;28;20037;-60
2023/03/20 11:46:46;;;;;;;8.23;5.00;;;;;;;;;;5022525;28;20136;-58
2023/03/20 11:49:12;;;;;;;;;;;;;;;;;;5024141;28;20041;-58
2023/03/20 11:51:38;;;;;;;7.67;4.90;;;;;;;;;;5024578;28;19974;-58
2023/03/20 11:54:12;;;;;;;7.53;4.78;;;;;;;;;;5023890;28;20041;-57
2023/03/20 11:56:49;;;;;;;7.00;4.78;;;;;;;;;;5025123;28;20041;-57
2023/03/20 11:59:17;;;;;;;;;;;;;;;;;;5024245;28;20025;-60
2023/03/20 12:01:47;;;;;;;7.40;5.03;;;;;;;;;;5023896;28;19920;-58
2023/03/20 12:04:25;;;;;;;7.88;4.93;;;;;;;;;;5022305;28;20111;-58
2023/03/20 12:07:02;;;;;;;8.63;5.30;;;;;;;;;;5022468;28;20040;-59
2023/03/20 12:09:32;;;;;;;7.88;4.90;;;;;;;;;;5022929;28;20041;-59
2023/03/20 12:12:06;;;;;;;7.50;4.55;;;;;;;;;;5022641;28;20033;-57
2023/03/20 12:14:53;;;;;;;6.55;4.30;;;;;;;;;;5025743;28;20332;-59
2023/03/20 12:17:25;;;;;;;7.28;4.60;;;;;;;;;;5022959;28;20052;-59
2023/03/20 12:19:51;;;;;;;6.95;4.32;;;;;;;;;;5022624;28;20129;-60
2023/03/20 12:22:21;;;;;;;7.72;4.75;;;;;;;;;;5021450;28;20039;-57
2023/03/20 12:24:52;;;;;;;7.85;5.20;;;;;;;;;;5025442;28;20037;-58
2023/03/20 12:27:28;;;;;;;8.27;4.97;;;;;;;;;;5023707;28;20029;-61
2023/03/20 12:30:12;;;;;;;7.90;4.63;;;;;;;;;;5024033;28;20142;-59
2023/03/20 12:32:37;;;;;;;6.70;4.40;;;;;;;;;;5021052;28;20037;-57
2023/03/20 12:35:05;;;;;;;8.70;4.25;;;;;;;;;;5022536;28;20103;-59
2023/03/20 12:37:31;;;;;;;9.02;5.00;;;;;;;;;;5020923;28;20458;-59
2023/03/20 12:39:59;;;;;;;7.13;4.95;;;;;;;;;;5022667;28;20037;-60
2023/03/20 12:42:27;;;;;;;11.60;5.10;;;;;;;;;;5021157;28;20033;-61
2023/03/20 12:44:52;;;;;;;7.60;4.82;;;;;;;;;;5021314;28;20120;-61
2023/03/20 12:47:35;;;;;;;9.85;5.07;;;;;;;;;;5022866;28;20040;-59
2023/03/20 12:50:20;;;;;;;8.27;5.20;;;;;;;;;;5021065;28;20044;-59
2023/03/20 12:53:08;;;;;;;8.02;5.22;;;;;;;;;;5021980;28;20021;-57
2023/03/20 12:55:36;;;;;;;10.50;4.65;;;;;;;;;;5025618;28;20083;-58
2023/03/20 12:58:01;;;;;;;7.57;4.90;;;;;;;;;;5020439;28;20110;-58
2023/03/20 13:00:33;;;;;;;7.03;4.88;;;;;;;;;;5021745;28;20148;-59
2023/03/20 13:03:31;;;;;;;7.10;4.57;;;;;;;;;;5035914;28;20104;-59
2023/03/20 13:06:03;;;;;;;8.63;4.82;;;;;;;;;;5012880;28;20051;-61
2023/03/20 13:08:35;;;;;;;6.50;4.60;;;;;;;;;;5020771;28;20061;-58
2023/03/20 13:11:10;;;;;;;10.55;4.70;;;;;;;;;;5022448;28;20036;-62
2023/03/20 13:13:42;;;;;;;7.13;4.38;;;;;;;;;;5022283;28;20564;-59
2023/03/20 13:16:14;;;;;;;7.78;4.68;;;;;;;;;;5022472;28;20045;-60
2023/03/20 13:19:14;;;;;;;7.55;4.32;;;;;;;;;;5022868;28;20047;-61
2023/03/20 13:21:45;;;;;;;5.85;3.78;;;;;;;;;;5001042;28;20044;-59
2023/03/20 13:24:16;;;;;;;5.95;3.50;;;;;;;;;;5019480;28;20136;-58
2023/03/20 13:26:53;;;;;;;6.10;3.92;;;;;;;;;;5030078;28;20037;-59
2023/03/20 13:29:25;;;;;;;4.60;3.38;;;;;;;;;;5024426;28;20116;-58
2023/03/20 13:32:09;;;;;;;6.88;3.80;;;;;;;;;;5024345;28;20036;-59
2023/03/20 13:34:49;;;;;;;6.13;3.97;;;;;;;;;;5026695;28;20042;-57
2023/03/20 13:37:14;;;;;;;6.15;3.63;;;;;;;;;;5023519;28;20041;-59
2023/03/20 13:39:59;;;;;;;7.15;4.18;;;;;;;;;;5024459;28;20033;-59
2023/03/20 13:42:28;;;;;;;7.82;3.90;;;;;;;;;;5024759;28;20045;-57
2023/03/20 13:45:04;;;;;;;8.57;4.13;;;;;;;;;;5023207;28;20033;-58
2023/03/20 13:47:30;;;;;;;5.50;3.70;;;;;;;;;;5023717;28;20034;-60
2023/03/20 13:50:04;;;;;;;6.32;3.95;;;;;;;;;;5029155;28;20056;-59
2023/03/20 13:52:32;;;;;;;5.35;3.60;;;;;;;;;;5027030;28;20140;-59
2023/03/20 13:55:00;;;;;;;7.15;3.80;;;;;;;;;;5028014;28;20525;-61
2023/03/20 13:57:32;;;;;;;6.97;3.60;;;;;;;;;;5028628;28;20037;-60
2023/03/20 14:00:17;;;;;;;6.43;3.55;;;;;;;;;;5017282;28;20474;-60
2023/03/20 14:02:48;;;;;;;5.40;3.25;;;;;;;;;;5027668;28;20111;-63
2023/03/20 14:05:16;;;;;;;5.47;3.35;;;;;;;;;;5017967;28;20033;-58
2023/03/20 14:07:43;;;;;;;5.25;3.13;;;;;;;;;;5028590;28;20036;-58
2023/03/20 14:10:20;;;;;;;5.53;3.47;;;;;;;;;;5027368;28;20051;-62
2023/03/20 14:12:52;;;;;;;5.07;3.65;;;;;;;;;;5027540;28;20132;-58
2023/03/20 14:15:18;;;;;;;5.45;3.70;;;;;;;;;;5027336;28;20496;-58
2023/03/20 14:17:45;;;;;;;6.10;3.20;;;;;;;;;;5028215;28;20025;-58
2023/03/20 14:20:28;;;;;;;6.20;3.72;;;;;;;;;;5027051;28;20037;-60
2023/03/20 14:22:55;;;;;;;5.03;3.40;;;;;;;;;;5026511;28;20048;-60
2023/03/20 14:25:22;;;;;;;5.68;3.25;;;;;;;;;;5029215;28;20060;-64
2023/03/20 14:27:56;;;;;;;6.03;3.60;;;;;;;;;;5028156;28;20030;-58
2023/03/20 14:30:31;;;;;;;6.50;3.63;;;;;;;;;;5028155;28;20041;-60
2023/03/20 14:33:04;;;;;;;5.93;3.50;;;;;;;;;;5026623;28;20046;-59
2023/03/20 14:35:34;;;;;;;8.23;3.58;;;;;;;;;;5028450;28;20832;-58
2023/03/20 14:38:09;;;;;;;7.70;4.15;;;;;;;;;;5025602;28;20124;-60
2023/03/20 14:40:37;;;;;;;6.35;3.88;;;;;;;;;;5028505;28;20094;-58
2023/03/20 14:43:16;;;;;;;6.50;3.80;;;;;;;;;;5028992;28;20022;-60
2023/03/20 14:45:42;;;;;;;7.25;3.60;;;;;;;;;;5025388;28;20076;-60
2023/03/20 14:48:16;;;;;;;7.47;3.75;;;;;;;;;;5039446;28;20033;-62
2023/03/20 14:50:47;;;;;;;7.40;3.97;;;;;;;;;;5026783;28;20120;-60
2023/03/20 14:53:13;;;;;;;6.45;3.67;;;;;;;;;;5024334;28;20032;-59
2023/03/20 14:55:54;;;;;;;6.75;4.05;;;;;;;;;;5023111;28;20029;-60
2023/03/20 14:58:38;;;;;;;6.75;3.97;;;;;;;;;;5026030;28;20037;-59
2023/03/20 15:01:04;;;;;;;5.93;3.53;;;;;;;;;;5025638;28;20551;-59
2023/03/20 15:03:30;;;;;;;8.67;3.93;;;;;;;;;;5027046;28;20044;-60